Time;durP1;ratioP1;P1;durP2;ratioP2;P2;SDS_P1;SDS_P2;PMS_P1;PMS_P2;Temp;Humidity;BMP_temperature;BMP_pressure;BME280_temperature;BME280_humidity;BME280_pressure;Samples;Min_cycle;Max_cycle;Signal;HPM_P1;HPM_P2
2023/12/19 00:00:03;;;;;;;20.15;10.43;;;;;;;18.06;65.01;102462.97;4974771;28;20036;-36
2023/12/19 00:02:28;;;;;;;21.02;11.27;;;;;;;18.05;64.99;102461.28;4988009;28;20040;-36
2023/12/19 00:04:54;;;;;;;18.75;9.40;;;;;;;18.03;65.02;102458.78;4999062;28;20025;-39
2023/12/19 00:07:19;;;;;;;23.77;11.18;;;;;;;18.02;65.12;102439.84;4991395;28;20089;-38
2023/12/19 00:09:45;;;;;;;19.27;11.18;;;;;;;18.02;65.34;102437.09;4992690;28;20034;-38
2023/12/19 00:12:10;;;;;;;19.38;10.93;;;;;;;18.01;65.54;102418.97;4999750;28;20084;-39
2023/12/19 00:14:36;;;;;;;27.90;10.52;;;;;;;17.99;65.73;102408.22;4993549;28;20030;-38
2023/12/19 00:17:01;;;;;;;16.02;9.63;;;;;;;17.98;65.50;102401.06;4960331;28;20326;-39
2023/12/19 00:19:26;;;;;;;17.02;9.98;;;;;;;17.97;65.79;102404.88;5000451;28;20022;-39
2023/12/19 00:21:52;;;;;;;20.77;10.40;;;;;;;17.97;65.60;102410.38;4991516;28;20399;-39
2023/12/19 00:24:17;;;;;;;17.25;9.75;;;;;;;17.96;65.65;102408.69;4994955;28;20327;-39
2023/12/19 00:26:42;;;;;;;16.77;9.73;;;;;;;17.96;65.56;102401.31;4976679;28;20042;-39
2023/12/19 00:29:08;;;;;;;17.25;10.27;;;;;;;17.98;65.78;102400.22;4991604;28;20110;-40
2023/12/19 00:31:33;;;;;;;15.43;9.60;;;;;;;17.99;65.77;102401.88;4985836;28;20033;-39
2023/12/19 00:33:59;;;;;;;16.88;9.35;;;;;;;17.99;65.78;102380.78;4975808;28;20496;-39
2023/12/19 00:36:24;;;;;;;16.42;9.60;;;;;;;17.99;65.67;102383.53;4992026;28;20095;-39
2023/12/19 00:38:50;;;;;;;14.18;8.75;;;;;;;18.00;65.67;102387.09;4988673;28;20041;-40
2023/12/19 00:41:16;;;;;;;17.27;10.30;;;;;;;18.01;65.53;102394.28;4975427;28;20193;-36
2023/12/19 00:43:42;;;;;;;15.38;9.70;;;;;;;18.01;65.67;102389.59;4997759;28;20044;-36
2023/12/19 00:46:08;;;;;;;18.08;9.80;;;;;;;18.00;65.53;102387.09;4990529;28;20546;-39
2023/12/19 00:48:33;;;;;;;19.70;9.68;;;;;;;17.99;65.53;102388.19;4998580;28;20056;-39
2023/12/19 00:50:58;;;;;;;13.60;9.13;;;;;;;17.99;65.18;102390.91;4997128;28;20209;-40
2023/12/19 00:53:24;;;;;;;29.20;9.18;;;;;;;17.98;65.41;102376.38;4994955;28;20387;-39
2023/12/19 00:55:49;;;;;;;16.48;9.27;;;;;;;17.96;65.40;102381.25;4994746;28;20556;-39
2023/12/19 00:58:15;;;;;;;16.63;9.82;;;;;;;17.94;65.44;102372.44;4997541;28;20118;-39
2023/12/19 01:00:40;;;;;;;14.65;9.07;;;;;;;17.92;65.58;102371.81;4991610;28;20084;-38
2023/12/19 01:03:05;;;;;;;18.33;10.02;;;;;;;17.90;65.55;102357.50;4999154;28;20448;-36
2023/12/19 01:05:31;;;;;;;15.55;9.27;;;;;;;17.90;65.70;102365.72;4992316;28;21310;-37
2023/12/19 01:07:56;;;;;;;17.42;10.15;;;;;;;17.87;65.78;102367.03;4994219;28;20033;-36
2023/12/19 01:10:22;;;;;;;14.57;8.95;;;;;;;17.87;65.94;102355.25;4991840;28;20022;-39
2023/12/19 01:12:47;;;;;;;14.70;8.20;;;;;;;17.84;66.21;102342.84;4994529;28;20026;-36
2023/12/19 01:15:13;;;;;;;13.75;8.40;;;;;;;17.83;66.17;102351.31;4989906;28;20021;-37
2023/12/19 01:17:39;;;;;;;19.00;9.10;;;;;;;17.81;66.16;102359.78;4992033;28;20434;-36
2023/12/19 01:20:04;;;;;;;12.93;8.50;;;;;;;17.79;66.28;102351.78;4965653;28;20018;-37
2023/12/19 01:22:30;;;;;;;14.73;7.85;;;;;;;17.78;66.38;102349.28;4992110;28;20029;-37
2023/12/19 01:24:55;;;;;;;13.20;7.78;;;;;;;17.78;66.55;102350.13;4995028;28;20167;-37
2023/12/19 01:27:21;;;;;;;14.93;8.40;;;;;;;17.78;66.61;102357.50;4995291;28;20028;-38
2023/12/19 01:29:46;;;;;;;18.05;9.07;;;;;;;17.77;66.37;102353.09;4973457;28;20030;-36
2023/12/19 01:32:13;;;;;;;15.43;8.35;;;;;;;17.77;66.61;102344.88;4974467;28;20053;-39
2023/12/19 01:34:38;;;;;;;14.02;8.70;;;;;;;17.76;66.56;102346.78;4992137;28;20041;-38
2023/12/19 01:37:04;;;;;;;15.90;8.68;;;;;;;17.76;66.78;102345.94;4982068;28;20595;-39
2023/12/19 01:39:29;;;;;;;12.10;7.32;;;;;;;17.75;66.50;102342.34;4995348;28;20115;-38
2023/12/19 01:41:54;;;;;;;15.15;7.97;;;;;;;17.75;66.45;102347.03;4995676;28;20037;-38
2023/12/19 01:44:20;;;;;;;15.50;8.00;;;;;;;17.75;66.53;102341.53;4995124;28;20514;-39
2023/12/19 01:46:49;;;;;;;15.80;8.48;;;;;;;17.74;66.56;102337.97;4991709;28;20034;-37
2023/12/19 01:49:15;;;;;;;14.70;7.65;;;;;;;17.74;66.64;102340.72;4996405;28;20394;-38
2023/12/19 01:51:40;;;;;;;15.75;8.45;;;;;;;17.74;66.70;102345.34;4997148;28;20038;-36
2023/12/19 01:54:06;;;;;;;14.10;7.63;;;;;;;17.73;66.68;102328.06;4992694;28;20030;-39
2023/12/19 01:56:32;;;;;;;14.27;7.93;;;;;;;17.73;66.66;102324.47;4975432;28;20367;-39
2023/12/19 01:59:00;;;;;;;13.35;7.47;;;;;;;17.73;66.65;102319.00;4992650;28;20383;-37
2023/12/19 02:01:25;;;;;;;12.02;7.35;;;;;;;17.72;66.67;102309.94;4996940;28;20034;-38
2023/12/19 02:03:51;;;;;;;11.13;7.20;;;;;;;17.72;66.71;102314.56;4996638;28;20082;-38
2023/12/19 02:06:19;;;;;;;13.07;7.00;;;;;;;17.71;66.77;102310.19;5000529;28;20022;-36
2023/12/19 02:08:44;;;;;;;10.35;6.95;;;;;;;17.69;66.84;102304.94;4993944;28;20069;-37
2023/12/19 02:11:10;;;;;;;13.55;7.68;;;;;;;17.69;66.79;102307.66;4978208;28;20108;-39
2023/12/19 02:13:37;;;;;;;10.30;6.53;;;;;;;17.68;67.13;102299.69;4996065;28;20394;-39
2023/12/19 02:16:03;;;;;;;12.43;6.63;;;;;;;17.68;66.87;102294.19;4970366;28;20026;-38
2023/12/19 02:18:28;;;;;;;11.10;6.55;;;;;;;17.67;67.19;102303.50;5000840;28;20034;-36
2023/12/19 02:20:54;;;;;;;11.20;7.15;;;;;;;17.67;67.06;102292.53;4994771;28;20519;-36
2023/12/19 02:23:20;;;;;;;11.55;6.97;;;;;;;17.67;67.14;102285.16;4999010;28;20176;-38
2023/12/19 02:25:46;;;;;;;11.23;6.55;;;;;;;17.66;67.24;102272.50;4967013;28;20116;-37
2023/12/19 02:28:12;;;;;;;10.85;6.70;;;;;;;17.65;67.08;102255.22;4986156;28;20034;-37
2023/12/19 02:30:38;;;;;;;9.43;6.47;;;;;;;17.64;67.26;102267.28;5008311;28;20910;-36
2023/12/19 02:33:04;;;;;;;9.63;6.65;;;;;;;17.64;67.31;102256.31;5009423;28;20144;-39
2023/12/19 02:35:30;;;;;;;8.77;6.03;;;;;;;17.64;67.39;102266.44;5003000;28;20038;-39
2023/12/19 02:37:55;;;;;;;9.52;6.68;;;;;;;17.64;67.06;102264.53;5009807;28;20081;-37
2023/12/19 02:40:21;;;;;;;10.70;6.22;;;;;;;17.63;67.39;102257.38;5000514;28;20042;-36
2023/12/19 02:42:46;;;;;;;8.48;5.45;;;;;;;17.63;67.22;102251.91;5004806;28;20471;-40
2023/12/19 02:45:12;;;;;;;12.63;6.15;;;;;;;17.63;67.26;102245.56;5000200;28;20612;-40
2023/12/19 02:47:38;;;;;;;10.05;5.70;;;;;;;17.64;67.28;102239.00;5004515;28;20030;-36
2023/12/19 02:50:04;;;;;;;8.82;5.45;;;;;;;17.63;67.31;102240.94;5002386;28;20066;-36
2023/12/19 02:52:30;;;;;;;9.85;6.20;;;;;;;17.61;67.39;102234.84;5010521;28;20037;-39
2023/12/19 02:54:55;;;;;;;10.65;6.68;;;;;;;17.63;67.18;102227.22;5012585;28;20040;-39
2023/12/19 02:57:20;;;;;;;8.80;5.70;;;;;;;17.63;67.44;102221.75;5001580;28;20044;-37
2023/12/19 02:59:46;;;;;;;10.80;5.95;;;;;;;17.63;67.32;102226.38;4999209;28;21225;-36
2023/12/19 03:02:11;;;;;;;12.98;5.97;;;;;;;17.63;67.53;102227.22;4983681;28;20079;-38
2023/12/19 03:04:40;;;;;;;9.63;5.60;;;;;;;17.61;67.52;102226.63;5001280;28;20032;-36
2023/12/19 03:07:07;;;;;;;9.30;5.10;;;;;;;17.60;67.45;102213.16;5005650;28;20030;-35
2023/12/19 03:09:32;;;;;;;9.43;5.57;;;;;;;17.61;67.64;102210.16;5006080;28;20038;-37
2023/12/19 03:12:05;;;;;;;9.85;5.63;;;;;;;17.61;67.75;102204.69;5002373;28;20112;-38
2023/12/19 03:14:35;;;;;;;8.98;5.63;;;;;;;17.60;67.58;102194.78;5013209;28;20096;-37
2023/12/19 03:17:01;;;;;;;7.70;5.30;;;;;;;17.60;67.40;102193.97;5009255;28;20025;-39
2023/12/19 03:19:26;;;;;;;11.70;5.20;;;;;;;17.60;67.71;102188.50;4985713;28;20037;-39
2023/12/19 03:21:52;;;;;;;9.57;5.40;;;;;;;17.59;67.63;102186.81;5007203;28;20399;-37
2023/12/19 03:24:17;;;;;;;9.27;5.22;;;;;;;17.59;67.58;102184.91;4984327;28;20414;-36
2023/12/19 03:26:42;;;;;;;7.95;5.10;;;;;;;17.60;67.56;102183.00;4981009;28;20026;-37
2023/12/19 03:29:08;;;;;;;7.20;5.13;;;;;;;17.60;67.57;102181.09;4977980;28;20400;-36
2023/12/19 03:31:33;;;;;;;7.97;4.75;;;;;;;17.58;67.58;102176.91;4963815;28;20081;-36
2023/12/19 03:34:01;;;;;;;7.47;4.82;;;;;;;17.57;67.77;102173.34;4979679;28;20022;-36
2023/12/19 03:36:26;;;;;;;9.55;5.50;;;;;;;17.58;67.55;102165.97;4947681;28;20675;-36
2023/12/19 03:38:52;;;;;;;6.82;5.25;;;;;;;17.57;67.72;102150.56;4979411;28;20022;-36
2023/12/19 03:41:17;;;;;;;8.52;5.15;;;;;;;17.55;67.92;102136.31;4979837;28;20026;-36
2023/12/19 03:43:43;;;;;;;7.68;4.88;;;;;;;17.56;67.78;102129.72;4962545;28;20089;-36
2023/12/19 03:46:08;;;;;;;8.32;5.10;;;;;;;17.54;67.99;102129.16;4980994;28;20962;-36
2023/12/19 03:48:37;;;;;;;7.10;4.90;;;;;;;17.53;68.00;102122.81;4981056;28;20026;-35
2023/12/19 03:51:03;;;;;;;6.22;4.18;;;;;;;17.53;68.08;102119.25;4979944;28;20898;-37
2023/12/19 03:53:28;;;;;;;6.85;4.32;;;;;;;17.52;68.05;102126.63;4963108;28;20459;-37
2023/12/19 03:55:54;;;;;;;6.88;4.43;;;;;;;17.51;67.98;102115.91;4982764;28;21106;-39
2023/12/19 03:58:20;;;;;;;7.18;4.50;;;;;;;17.49;68.29;102119.72;4980669;28;20491;-39
2023/12/19 04:00:45;;;;;;;7.05;4.35;;;;;;;17.51;68.24;102118.66;4977114;28;20045;-39
2023/12/19 04:03:11;;;;;;;6.68;4.30;;;;;;;17.51;68.08;102113.16;4981273;28;20056;-36
2023/12/19 04:05:36;;;;;;;7.15;4.50;;;;;;;17.49;68.28;102111.50;4978837;28;20096;-36
2023/12/19 04:08:02;;;;;;;8.20;5.00;;;;;;;17.51;68.06;102110.44;4981543;28;20493;-36
2023/12/19 04:10:27;;;;;;;6.28;4.43;;;;;;;17.50;68.18;102104.13;4978789;28;20030;-37
2023/12/19 04:12:53;;;;;;;6.47;4.78;;;;;;;17.51;68.03;102114.03;4977822;28;20149;-39
2023/12/19 04:15:18;;;;;;;8.07;4.78;;;;;;;17.50;68.05;102115.09;4981219;28;20053;-41
2023/12/19 04:17:43;;;;;;;6.93;4.35;;;;;;;17.50;68.24;102109.63;4981278;28;20072;-39
2023/12/19 04:20:10;;;;;;;8.27;4.30;;;;;;;17.49;68.14;102100.53;4979584;28;20026;-36
2023/12/19 04:22:36;;;;;;;6.78;4.45;;;;;;;17.48;68.24;102104.38;4983421;28;20160;-37
2023/12/19 04:25:01;;;;;;;7.18;4.40;;;;;;;17.47;68.27;102102.72;4989777;28;20029;-39
2023/12/19 04:27:27;;;;;;;6.88;4.30;;;;;;;17.49;68.07;102096.97;4998346;28;20021;-37
2023/12/19 04:29:55;;;;;;;5.93;4.45;;;;;;;17.48;68.11;102089.81;4995907;28;20471;-37
2023/12/19 04:32:20;;;;;;;5.55;4.10;;;;;;;17.46;68.24;102091.97;4989297;28;20023;-35
2023/12/19 04:34:45;;;;;;;6.63;4.38;;;;;;;17.45;68.46;102093.06;4991220;28;20697;-37
2023/12/19 04:37:11;;;;;;;5.72;4.13;;;;;;;17.44;68.52;102083.19;4994302;28;20064;-38
2023/12/19 04:39:36;;;;;;;6.70;4.07;;;;;;;17.42;68.65;102083.41;4992235;28;20057;-39
2023/12/19 04:42:06;;;;;;;4.47;3.90;;;;;;;17.42;68.60;102079.84;4990353;28;20030;-39
2023/12/19 04:44:35;;;;;;;6.43;4.20;;;;;;;17.39;68.62;102067.47;4998220;28;20660;-39
2023/12/19 04:47:00;;;;;;;6.25;4.13;;;;;;;17.38;68.75;102078.66;4993368;28;20538;-39
2023/12/19 04:49:25;;;;;;;7.68;4.03;;;;;;;17.36;68.76;102080.81;4974343;28;20116;-40
2023/12/19 04:51:54;;;;;;;7.30;4.53;;;;;;;17.39;68.77;102083.06;4960369;28;20038;-38
2023/12/19 04:54:19;;;;;;;5.65;4.00;;;;;;;17.35;68.90;102076.41;4998929;28;20030;-39
2023/12/19 04:56:45;;;;;;;6.95;4.70;;;;;;;17.37;68.79;102072.34;4992581;28;20391;-37
2023/12/19 04:59:10;;;;;;;8.00;4.90;;;;;;;17.36;68.98;102067.09;4996706;28;20041;-36
2023/12/19 05:01:40;;;;;;;8.68;4.72;;;;;;;17.37;68.68;102071.50;4993528;28;20022;-36
2023/12/19 05:04:06;;;;;;;8.73;4.75;;;;;;;17.37;69.19;102071.50;4997125;28;20530;-35
2023/12/19 05:06:31;;;;;;;6.85;4.53;;;;;;;17.36;69.19;102073.41;4975839;28;20041;-35
2023/12/19 05:08:56;;;;;;;6.03;4.15;;;;;;;17.40;69.50;102069.13;4976667;28;20029;-36
2023/12/19 05:11:22;;;;;;;7.18;4.10;;;;;;;17.43;69.30;102071.38;4992512;28;20622;-36
2023/12/19 05:13:47;;;;;;;6.50;4.10;;;;;;;17.50;69.21;102065.75;4999086;28;20041;-36
2023/12/19 05:16:14;;;;;;;5.90;3.78;;;;;;;17.56;69.06;102061.19;4993346;28;20030;-36
2023/12/19 05:18:41;;;;;;;6.13;4.47;;;;;;;17.64;69.26;102060.81;4979871;28;20133;-38
2023/12/19 05:21:10;;;;;;;8.45;4.10;;;;;;;17.73;69.02;102053.88;4994459;28;20041;-36
2023/12/19 05:23:36;;;;;;;6.18;3.80;;;;;;;17.79;69.20;102054.78;4988320;28;20123;-36
2023/12/19 05:26:05;;;;;;;5.00;3.42;;;;;;;17.88;68.88;102056.06;5005410;28;20025;-38
2023/12/19 05:28:31;;;;;;;5.38;3.80;;;;;;;17.96;69.12;102047.47;5007550;28;20108;-38
2023/12/19 05:30:57;;;;;;;5.03;3.60;;;;;;;18.03;68.93;102041.81;5006015;28;20104;-35
2023/12/19 05:33:26;;;;;;;5.60;4.00;;;;;;;18.14;68.88;102036.50;5012232;28;20033;-38
2023/12/19 05:35:52;;;;;;;6.70;3.80;;;;;;;18.20;68.82;102035.50;5020081;28;20026;-36
2023/12/19 05:38:18;;;;;;;6.22;3.78;;;;;;;18.26;68.91;102029.00;5007637;28;20222;-39
2023/12/19 05:40:44;;;;;;;7.78;3.90;;;;;;;18.35;68.91;102026.69;4984543;28;20125;-40
2023/12/19 05:43:09;;;;;;;4.95;3.20;;;;;;;18.43;68.79;102024.34;4991735;28;20370;-39
2023/12/19 05:45:35;;;;;;;5.90;3.50;;;;;;;18.50;68.67;102017.84;5008987;28;20108;-39
2023/12/19 05:48:00;;;;;;;4.55;3.33;;;;;;;18.55;68.50;102017.91;5002866;28;20134;-36
2023/12/19 05:50:26;;;;;;;4.15;3.30;;;;;;;18.59;68.24;102011.66;5004064;28;20474;-36
2023/12/19 05:52:52;;;;;;;4.75;3.22;;;;;;;18.63;68.19;102016.66;5008125;28;20030;-39
2023/12/19 05:55:19;;;;;;;5.60;3.28;;;;;;;18.63;68.33;102002.94;4989135;28;20112;-36
2023/12/19 05:57:44;;;;;;;6.30;3.65;;;;;;;18.62;68.21;101996.59;5011253;28;20478;-39
2023/12/19 06:00:10;;;;;;;4.68;3.22;;;;;;;18.65;68.27;101992.50;4979326;28;20140;-36
2023/12/19 06:02:36;;;;;;;5.10;3.30;;;;;;;18.65;68.20;101998.00;5013939;28;20038;-37
2023/12/19 06:05:02;;;;;;;4.88;3.10;;;;;;;18.64;68.32;101994.44;5014365;28;20367;-39
2023/12/19 06:07:27;;;;;;;5.40;3.42;;;;;;;18.64;67.95;101991.69;5002560;28;20030;-36
2023/12/19 06:09:53;;;;;;;6.43;3.10;;;;;;;18.64;68.51;101988.09;5008180;28;20575;-38
2023/12/19 06:12:18;;;;;;;5.43;3.50;;;;;;;18.63;68.05;101989.22;5016520;28;20061;-36
2023/12/19 06:14:44;;;;;;;7.03;3.55;;;;;;;18.64;68.20;101990.84;5013863;28;20133;-36
2023/12/19 06:17:09;;;;;;;6.43;2.97;;;;;;;18.61;68.04;101983.94;5007097;28;20064;-40
2023/12/19 06:19:34;;;;;;;4.13;3.10;;;;;;;18.62;68.02;101990.28;4985580;28;20144;-39
2023/12/19 06:22:00;;;;;;;6.78;3.42;;;;;;;18.60;68.16;101979.53;5006981;28;20358;-39
2023/12/19 06:24:25;;;;;;;6.57;3.50;;;;;;;18.60;68.21;101985.03;4988131;28;20088;-39
2023/12/19 06:26:51;;;;;;;5.35;3.53;;;;;;;18.58;68.27;101974.31;4984604;28;20118;-39
2023/12/19 06:29:16;;;;;;;7.57;3.17;;;;;;;18.57;68.13;101969.06;4982921;28;20477;-38
2023/12/19 06:31:46;;;;;;;6.28;3.70;;;;;;;18.57;67.93;101963.59;4983481;28;20036;-38
2023/12/19 06:34:11;;;;;;;8.18;3.80;;;;;;;18.57;68.28;101977.31;4982223;28;20030;-38
2023/12/19 06:36:41;;;;;;;6.63;3.90;;;;;;;18.57;68.65;101967.16;4969506;28;20602;-36
2023/12/19 06:39:08;;;;;;;5.25;3.58;;;;;;;18.58;68.52;101966.06;4980031;28;20333;-38
2023/12/19 06:41:33;;;;;;;7.28;3.90;;;;;;;18.59;68.40;101964.19;4981494;28;20034;-38
2023/12/19 06:43:59;;;;;;;7.32;3.78;;;;;;;18.60;68.37;101963.06;4982926;28;20108;-39
2023/12/19 06:46:24;;;;;;;6.63;4.07;;;;;;;18.60;68.46;101957.56;4987548;28;20479;-38
2023/12/19 06:48:50;;;;;;;7.88;4.13;;;;;;;18.61;68.82;101956.50;4981885;28;20149;-39
2023/12/19 06:51:25;;;;;;;7.32;3.90;;;;;;;18.65;68.56;101960.41;4965146;28;20574;-38
2023/12/19 06:53:53;;;;;;;6.22;3.72;;;;;;;18.66;68.62;101951.06;4986888;28;20561;-38
2023/12/19 06:56:19;;;;;;;8.73;3.65;;;;;;;18.68;68.64;101964.56;4982876;28;20030;-36
2023/12/19 06:58:45;;;;;;;6.82;4.13;;;;;;;18.70;68.98;101960.47;4967514;28;20109;-37
2023/12/19 07:01:10;;;;;;;8.25;4.07;;;;;;;18.71;68.86;101962.13;4981791;28;20026;-36
2023/12/19 07:03:35;;;;;;;10.23;4.32;;;;;;;18.71;68.97;101959.41;4979409;28;20029;-36
2023/12/19 07:06:02;;;;;;;9.85;4.40;;;;;;;18.69;68.75;101953.31;4966789;28;20112;-36
2023/12/19 07:08:31;;;;;;;9.10;3.75;;;;;;;18.70;68.80;101957.72;4970281;28;20034;-40
2023/12/19 07:10:57;;;;;;;7.70;4.10;;;;;;;18.68;68.69;101961.81;4963609;28;20483;-40
2023/12/19 07:13:22;;;;;;;7.55;3.95;;;;;;;18.66;69.01;101950.25;4995203;28;20032;-37
2023/12/19 07:15:48;;;;;;;6.72;3.85;;;;;;;18.64;69.02;101946.91;4982660;28;20080;-39
2023/12/19 07:18:13;;;;;;;6.80;3.80;;;;;;;18.62;69.31;101944.44;4980086;28;20326;-38
2023/12/19 07:20:39;;;;;;;9.80;4.38;;;;;;;18.62;69.21;101943.63;4986462;28;20089;-36
2023/12/19 07:23:04;;;;;;;7.80;3.78;;;;;;;18.60;69.04;101943.84;4986802;28;20408;-39
2023/12/19 07:25:30;;;;;;;8.02;3.63;;;;;;;18.58;69.25;101946.84;5003346;28;20065;-37
2023/12/19 07:27:55;;;;;;;6.35;3.78;;;;;;;18.57;69.22;101936.94;5001127;28;20049;-36
2023/12/19 07:30:21;;;;;;;6.75;3.55;;;;;;;18.57;69.19;101936.13;5000565;28;20087;-39
2023/12/19 07:32:50;;;;;;;9.80;3.85;;;;;;;18.57;69.43;101942.44;5000387;28;20490;-39
2023/12/19 07:35:16;;;;;;;5.55;3.60;;;;;;;18.59;69.50;101933.97;5002968;28;20397;-39
2023/12/19 07:37:42;;;;;;;6.60;3.45;;;;;;;18.60;69.57;101944.69;5003783;28;20033;-39
2023/12/19 07:40:10;;;;;;;6.97;3.60;;;;;;;18.60;69.30;101930.97;4998713;28;20493;-39
2023/12/19 07:42:35;;;;;;;10.13;3.85;;;;;;;18.59;69.39;101929.31;5000795;28;20460;-39
2023/12/19 07:45:02;;;;;;;8.35;3.70;;;;;;;18.62;69.30;101946.38;4999395;28;20036;-39
2023/12/19 07:47:28;;;;;;;5.72;3.47;;;;;;;18.62;69.62;101936.19;4999721;28;20030;-37
2023/12/19 07:49:53;;;;;;;7.40;3.50;;;;;;;18.62;69.60;101936.19;5003668;28;20077;-37
2023/12/19 07:52:19;;;;;;;8.38;3.50;;;;;;;18.61;69.47;101940.03;5013686;28;20045;-37
2023/12/19 07:54:44;;;;;;;6.53;3.78;;;;;;;18.59;69.73;101933.97;5000843;28;20029;-37
2023/12/19 07:57:10;;;;;;;5.07;3.72;;;;;;;18.57;69.79;101922.41;4984237;28;20449;-39
2023/12/19 07:59:35;;;;;;;6.80;3.67;;;;;;;18.54;69.85;101915.50;4998896;28;20033;-37
2023/12/19 08:02:00;;;;;;;6.20;3.63;;;;;;;18.53;69.81;101926.75;4997779;28;20720;-38
2023/12/19 08:04:26;;;;;;;6.80;3.65;;;;;;;18.51;69.80;101923.44;4999968;28;20322;-36
2023/12/19 08:06:51;;;;;;;5.68;3.65;;;;;;;18.50;69.82;101914.34;4996253;28;20695;-36
2023/12/19 08:09:17;;;;;;;6.18;3.88;;;;;;;18.48;70.00;101912.94;5000859;28;20029;-36
2023/12/19 08:11:43;;;;;;;5.13;3.20;;;;;;;18.48;69.97;101918.44;4998683;28;20085;-36
2023/12/19 08:14:08;;;;;;;6.18;3.55;;;;;;;18.46;69.94;101915.13;4999065;28;20022;-37
2023/12/19 08:16:33;;;;;;;7.00;3.20;;;;;;;18.44;69.88;101912.63;4997960;28;20034;-36
2023/12/19 08:18:59;;;;;;;5.45;3.30;;;;;;;18.42;70.24;101912.88;4997528;28;20025;-38
2023/12/19 08:21:25;;;;;;;8.55;3.47;;;;;;;18.38;70.23;101910.88;4983423;28;20046;-37
2023/12/19 08:23:51;;;;;;;6.95;3.40;;;;;;;18.36;70.32;101900.16;5001410;28;20050;-36
2023/12/19 08:26:17;;;;;;;5.15;3.50;;;;;;;18.34;70.55;101905.06;5002916;28;20483;-36
2023/12/19 08:28:42;;;;;;;7.75;3.75;;;;;;;18.31;70.59;101905.59;5012183;28;20108;-39
2023/12/19 08:31:08;;;;;;;5.85;3.45;;;;;;;18.30;70.80;101894.88;5009696;28;20556;-38
2023/12/19 08:33:33;;;;;;;6.60;3.38;;;;;;;18.27;70.78;101905.28;5008103;28;20038;-39
2023/12/19 08:35:58;;;;;;;4.95;3.15;;;;;;;18.26;70.68;101902.78;5004682;28;20604;-39
2023/12/19 08:38:24;;;;;;;5.72;3.20;;;;;;;18.24;70.67;101900.28;4986228;28;20361;-36
2023/12/19 08:40:49;;;;;;;7.35;3.75;;;;;;;18.24;70.91;101899.44;4999692;28;20049;-39
2023/12/19 08:43:19;;;;;;;5.07;3.50;;;;;;;18.23;70.76;101892.31;4997843;28;20030;-39
2023/12/19 08:45:45;;;;;;;6.63;3.30;;;;;;;18.21;70.85;101887.06;5001517;28;20030;-39
2023/12/19 08:48:12;;;;;;;5.47;3.22;;;;;;;18.20;71.06;101893.63;5007705;28;20391;-38
2023/12/19 08:50:37;;;;;;;5.95;3.30;;;;;;;18.19;71.13;101899.38;5012881;28;20028;-37
2023/12/19 08:53:03;;;;;;;4.85;3.22;;;;;;;18.16;71.07;101884.25;5010121;28;20033;-36
2023/12/19 08:55:30;;;;;;;6.50;3.50;;;;;;;18.17;70.86;101879.59;5006471;28;20033;-36
2023/12/19 08:57:55;;;;;;;7.22;3.40;;;;;;;18.16;71.12;101881.53;4984839;28;20022;-38
2023/12/19 09:00:22;;;;;;;6.50;3.20;;;;;;;18.15;70.97;101889.97;5002249;28;20483;-38
2023/12/19 09:02:48;;;;;;;5.00;2.97;;;;;;;18.13;71.26;101876.53;5009334;28;20405;-38
2023/12/19 09:05:17;;;;;;;6.28;3.22;;;;;;;18.10;71.48;101879.78;5011226;28;20034;-39
2023/12/19 09:07:44;;;;;;;4.45;3.10;;;;;;;18.09;71.20;101887.16;4998769;28;20119;-39
2023/12/19 09:10:11;;;;;;;5.15;3.40;;;;;;;18.07;71.29;101885.75;5002550;28;20037;-38
2023/12/19 09:12:37;;;;;;;3.90;3.08;;;;;;;18.05;71.50;101886.03;5014225;28;20030;-36
2023/12/19 09:15:03;;;;;;;4.85;3.20;;;;;;;18.04;71.47;101872.56;5013410;28;20033;-35
2023/12/19 09:17:29;;;;;;;4.57;2.90;;;;;;;18.05;71.41;101877.78;5006880;28;20694;-36
2023/12/19 09:19:55;;;;;;;3.13;2.50;;;;;;;18.05;71.48;101871.47;5001136;28;20975;-39
2023/12/19 09:22:21;;;;;;;5.40;2.90;;;;;;;18.08;71.58;101876.47;5006256;28;20034;-38
2023/12/19 09:24:46;;;;;;;5.15;2.72;;;;;;;18.11;71.42;101881.41;5003325;28;20056;-39
2023/12/19 09:27:12;;;;;;;3.55;2.60;;;;;;;18.14;71.34;101861.72;5000830;28;20043;-38
2023/12/19 09:29:38;;;;;;;4.72;2.67;;;;;;;18.20;71.31;101857.16;5005132;28;20026;-39
2023/12/19 09:32:05;;;;;;;4.45;2.50;;;;;;;18.22;71.57;101853.06;4991985;28;20060;-40
2023/12/19 09:34:31;;;;;;;3.67;3.08;;;;;;;18.27;71.34;101855.88;5005939;28;20355;-39
2023/12/19 09:36:56;;;;;;;4.90;2.90;;;;;;;18.32;71.34;101854.28;5006723;28;20132;-37
2023/12/19 09:39:23;;;;;;;3.85;2.70;;;;;;;18.34;71.17;101861.16;4984850;28;20030;-36
2023/12/19 09:41:49;;;;;;;4.60;2.95;;;;;;;18.36;71.22;101852.69;5003425;28;20032;-38
2023/12/19 09:44:14;;;;;;;15.05;3.33;;;;;;;18.36;71.27;101853.50;5005659;28;20347;-37
2023/12/19 09:46:41;;;;;;;9.65;3.13;;;;;;;18.39;71.86;101846.69;4986345;28;20447;-39
2023/12/19 09:49:09;;;;;;;4.88;2.65;;;;;;;18.43;72.32;101840.44;5000539;28;20372;-36
2023/12/19 09:51:37;;;;;;;6.07;2.70;;;;;;;18.50;72.33;101845.72;5001049;28;20092;-38
2023/12/19 09:54:03;;;;;;;5.28;2.95;;;;;;;18.57;72.24;101854.59;4968932;28;20397;-39
2023/12/19 09:56:28;;;;;;;6.50;2.67;;;;;;;18.63;72.04;101854.66;4985042;28;20022;-38
2023/12/19 09:59:00;;;;;;;5.38;2.47;;;;;;;18.69;72.22;101848.97;5004169;28;20033;-34
2023/12/19 10:01:26;;;;;;;4.15;2.70;;;;;;;18.74;72.32;101848.19;5000119;28;20522;-35
2023/12/19 10:03:55;;;;;;;4.88;2.80;;;;;;;18.77;71.93;101840.28;4989762;28;20029;-36
2023/12/19 10:06:23;;;;;;;5.53;3.00;;;;;;;18.80;72.31;101832.59;4992341;28;20372;-36
2023/12/19 10:08:52;;;;;;;4.95;3.20;;;;;;;18.82;72.25;101831.28;5005984;28;20438;-38
2023/12/19 10:11:18;;;;;;;5.22;3.40;;;;;;;18.85;72.15;101827.19;4984422;28;20036;-36
2023/12/19 10:13:45;;;;;;;6.55;3.28;;;;;;;18.87;72.03;101825.81;5001451;28;20026;-37
2023/12/19 10:16:11;;;;;;;4.30;2.75;;;;;;;18.89;72.28;101820.06;5002066;28;20030;-37
2023/12/19 10:18:38;;;;;;;4.82;2.55;;;;;;;18.90;71.97;101824.47;4983438;28;20218;-36
2023/12/19 10:21:05;;;;;;;6.20;3.10;;;;;;;18.94;71.74;101811.09;5000091;28;20121;-38
2023/12/19 10:23:34;;;;;;;5.85;3.25;;;;;;;18.93;71.76;101802.00;5004475;28;20053;-38
2023/12/19 10:26:00;;;;;;;8.50;2.60;;;;;;;18.91;71.64;101805.00;4994999;28;20041;-36
2023/12/19 10:28:25;;;;;;;8.38;2.92;;;;;;;18.87;71.20;101798.38;5005668;28;20434;-36
2023/12/19 10:31:08;;;;;;;10.43;2.92;;;;;;;18.84;71.24;101790.63;4999217;28;20395;-37
2023/12/19 10:33:40;;;;;;;6.97;3.03;;;;;;;18.81;71.45;101788.41;5001123;28;20700;-36
2023/12/19 10:36:06;;;;;;;6.00;2.90;;;;;;;18.78;71.06;101783.44;5002750;28;20081;-37
2023/12/19 10:38:44;;;;;;;4.85;2.88;;;;;;;18.72;71.12;101777.06;5000087;28;20062;-38
2023/12/19 10:41:10;;;;;;;8.20;3.25;;;;;;;18.68;71.09;101773.16;4987482;28;20100;-36
2023/12/19 10:43:38;;;;;;;5.55;2.70;;;;;;;18.64;71.17;101777.53;5000513;28;20262;-37
2023/12/19 10:46:04;;;;;;;6.20;3.13;;;;;;;18.63;71.57;101769.56;5003128;28;20061;-38
2023/12/19 10:48:29;;;;;;;4.68;2.83;;;;;;;18.63;71.34;101772.31;4982709;28;20376;-39
2023/12/19 10:50:55;;;;;;;5.97;3.00;;;;;;;18.63;71.36;101766.81;5002229;28;20762;-38
2023/12/19 10:53:20;;;;;;;5.88;2.72;;;;;;;18.63;71.38;101766.81;5009511;28;20151;-36
2023/12/19 10:55:47;;;;;;;10.07;3.08;;;;;;;18.62;71.59;101757.72;5002241;28;20057;-36
2023/12/19 10:58:18;;;;;;;4.90;2.72;;;;;;;18.65;71.55;101748.13;5001772;28;20022;-37
2023/12/19 11:00:45;;;;;;;6.03;2.60;;;;;;;18.66;71.60;101733.31;5000146;28;20117;-36
2023/12/19 11:03:16;;;;;;;7.60;3.00;;;;;;;18.68;71.45;101733.91;5001365;28;20032;-38
2023/12/19 11:05:46;;;;;;;5.72;2.80;;;;;;;18.69;71.24;101724.59;5016699;28;20037;-38
2023/12/19 11:08:18;;;;;;;6.40;3.03;;;;;;;18.70;71.41;101718.81;5001141;28;20033;-38
2023/12/19 11:10:50;;;;;;;4.78;2.88;;;;;;;18.71;71.62;101708.66;5010099;28;20254;-39
2023/12/19 11:13:16;;;;;;;4.95;2.67;;;;;;;18.71;71.74;101712.25;4991281;28;20026;-39
2023/12/19 11:15:49;;;;;;;8.52;2.80;;;;;;;18.69;71.89;101706.19;4998110;28;20664;-39